sensor_id;sensor_type;location;lat;lon;timestamp;P1;durP1;ratioP1;P2;durP2;ratioP2
69837;SDS011;57135;51.992;4.476;2023-07-08T00:02:24;4.63;;;4.62;;
69837;SDS011;57135;51.992;4.476;2023-07-08T00:04:49;5.08;;;5.04;;
69837;SDS011;57135;51.992;4.476;2023-07-08T00:07:17;4.81;;;4.78;;
69837;SDS011;57135;51.992;4.476;2023-07-08T00:09:45;4.79;;;4.79;;
69837;SDS011;57135;51.992;4.476;2023-07-08T00:12:11;4.58;;;4.58;;
69837;SDS011;57135;51.992;4.476;2023-07-08T00:14:37;4.58;;;4.58;;
69837;SDS011;57135;51.992;4.476;2023-07-08T00:17:07;4.91;;;4.91;;
69837;SDS011;57135;51.992;4.476;2023-07-08T00:19:36;4.77;;;4.77;;
69837;SDS011;57135;51.992;4.476;2023-07-08T00:22:01;4.96;;;4.95;;
69837;SDS011;57135;51.992;4.476;2023-07-08T00:24:27;5.02;;;5.02;;
69837;SDS011;57135;51.992;4.476;2023-07-08T00:26:52;4.74;;;4.70;;
69837;SDS011;57135;51.992;4.476;2023-07-08T00:29:18;4.99;;;4.97;;
69837;SDS011;57135;51.992;4.476;2023-07-08T00:31:44;4.95;;;4.95;;
69837;SDS011;57135;51.992;4.476;2023-07-08T00:34:09;5.14;;;5.14;;
69837;SDS011;57135;51.992;4.476;2023-07-08T00:36:35;5.02;;;5.02;;
69837;SDS011;57135;51.992;4.476;2023-07-08T00:39:00;5.30;;;5.30;;
69837;SDS011;57135;51.992;4.476;2023-07-08T00:41:32;5.16;;;5.16;;
69837;SDS011;57135;51.992;4.476;2023-07-08T00:44:03;5.44;;;5.44;;
69837;SDS011;57135;51.992;4.476;2023-07-08T00:51:43;5.87;;;5.87;;
69837;SDS011;57135;51.992;4.476;2023-07-08T00:54:11;5.71;;;5.71;;
69837;SDS011;57135;51.992;4.476;2023-07-08T00:56:41;5.58;;;5.53;;
69837;SDS011;57135;51.992;4.476;2023-07-08T00:59:13;5.71;;;5.71;;
69837;SDS011;57135;51.992;4.476;2023-07-08T01:01:44;5.62;;;5.62;;
69837;SDS011;57135;51.992;4.476;2023-07-08T01:04:13;5.81;;;5.81;;
69837;SDS011;57135;51.992;4.476;2023-07-08T01:06:58;5.79;;;5.79;;
69837;SDS011;57135;51.992;4.476;2023-07-08T01:09:32;5.54;;;5.54;;
69837;SDS011;57135;51.992;4.476;2023-07-08T01:12:02;5.64;;;5.64;;
69837;SDS011;57135;51.992;4.476;2023-07-08T01:14:32;5.85;;;5.85;;
69837;SDS011;57135;51.992;4.476;2023-07-08T01:17:00;6.05;;;6.05;;
69837;SDS011;57135;51.992;4.476;2023-07-08T01:19:26;5.53;;;5.53;;
69837;SDS011;57135;51.992;4.476;2023-07-08T01:24:28;5.66;;;5.66;;
69837;SDS011;57135;51.992;4.476;2023-07-08T01:26:57;5.68;;;5.68;;
69837;SDS011;57135;51.992;4.476;2023-07-08T01:29:23;5.30;;;5.30;;
69837;SDS011;57135;51.992;4.476;2023-07-08T01:31:49;5.97;;;5.97;;
69837;SDS011;57135;51.992;4.476;2023-07-08T01:34:16;5.59;;;5.59;;
69837;SDS011;57135;51.992;4.476;2023-07-08T01:36:44;5.66;;;5.66;;
69837;SDS011;57135;51.992;4.476;2023-07-08T01:39:14;5.62;;;5.62;;
69837;SDS011;57135;51.992;4.476;2023-07-08T01:41:43;5.38;;;5.38;;
69837;SDS011;57135;51.992;4.476;2023-07-08T01:44:26;5.59;;;5.58;;
69837;SDS011;57135;51.992;4.476;2023-07-08T01:46:59;5.57;;;5.57;;
69837;SDS011;57135;51.992;4.476;2023-07-08T01:49:30;5.38;;;5.37;;
69837;SDS011;57135;51.992;4.476;2023-07-08T01:51:56;5.80;;;5.80;;
69837;SDS011;57135;51.992;4.476;2023-07-08T01:54:22;5.46;;;5.46;;
69837;SDS011;57135;51.992;4.476;2023-07-08T01:56:50;5.56;;;5.56;;
69837;SDS011;57135;51.992;4.476;2023-07-08T01:59:20;5.33;;;5.33;;
69837;SDS011;57135;51.992;4.476;2023-07-08T02:01:45;5.86;;;5.86;;
69837;SDS011;57135;51.992;4.476;2023-07-08T02:04:12;5.92;;;5.92;;
69837;SDS011;57135;51.992;4.476;2023-07-08T02:06:37;6.21;;;6.21;;
69837;SDS011;57135;51.992;4.476;2023-07-08T02:09:03;6.29;;;6.29;;
69837;SDS011;57135;51.992;4.476;2023-07-08T02:11:30;6.16;;;6.16;;
69837;SDS011;57135;51.992;4.476;2023-07-08T02:13:56;6.27;;;6.27;;
69837;SDS011;57135;51.992;4.476;2023-07-08T02:16:21;6.08;;;6.08;;
69837;SDS011;57135;51.992;4.476;2023-07-08T02:18:47;6.45;;;6.45;;
69837;SDS011;57135;51.992;4.476;2023-07-08T02:21:12;6.38;;;6.38;;
69837;SDS011;57135;51.992;4.476;2023-07-08T02:23:38;6.41;;;6.41;;
69837;SDS011;57135;51.992;4.476;2023-07-08T02:26:04;6.13;;;6.13;;
69837;SDS011;57135;51.992;4.476;2023-07-08T02:28:29;6.63;;;6.63;;
69837;SDS011;57135;51.992;4.476;2023-07-08T02:30:55;6.45;;;6.45;;
69837;SDS011;57135;51.992;4.476;2023-07-08T02:33:20;6.45;;;6.45;;
69837;SDS011;57135;51.992;4.476;2023-07-08T02:35:46;6.57;;;6.57;;
69837;SDS011;57135;51.992;4.476;2023-07-08T02:38:11;6.56;;;6.56;;
69837;SDS011;57135;51.992;4.476;2023-07-08T02:40:36;6.66;;;6.66;;
69837;SDS011;57135;51.992;4.476;2023-07-08T02:43:02;6.61;;;6.60;;
69837;SDS011;57135;51.992;4.476;2023-07-08T02:45:27;6.42;;;6.42;;
69837;SDS011;57135;51.992;4.476;2023-07-08T02:47:53;6.62;;;6.62;;
69837;SDS011;57135;51.992;4.476;2023-07-08T02:50:20;6.49;;;6.49;;
69837;SDS011;57135;51.992;4.476;2023-07-08T02:52:45;6.59;;;6.59;;
69837;SDS011;57135;51.992;4.476;2023-07-08T02:55:11;7.00;;;7.00;;
69837;SDS011;57135;51.992;4.476;2023-07-08T02:57:37;6.72;;;6.72;;
69837;SDS011;57135;51.992;4.476;2023-07-08T03:00:03;6.64;;;6.64;;
69837;SDS011;57135;51.992;4.476;2023-07-08T03:02:32;6.69;;;6.69;;
69837;SDS011;57135;51.992;4.476;2023-07-08T03:04:57;6.90;;;6.90;;
69837;SDS011;57135;51.992;4.476;2023-07-08T03:07:24;7.12;;;7.12;;
69837;SDS011;57135;51.992;4.476;2023-07-08T03:09:50;6.98;;;6.98;;
69837;SDS011;57135;51.992;4.476;2023-07-08T03:12:15;7.12;;;7.11;;
69837;SDS011;57135;51.992;4.476;2023-07-08T03:14:41;6.91;;;6.91;;
69837;SDS011;57135;51.992;4.476;2023-07-08T03:17:06;6.81;;;6.81;;
69837;SDS011;57135;51.992;4.476;2023-07-08T03:19:31;6.68;;;6.68;;
69837;SDS011;57135;51.992;4.476;2023-07-08T03:21:57;6.78;;;6.78;;
69837;SDS011;57135;51.992;4.476;2023-07-08T03:24:24;6.87;;;6.87;;
69837;SDS011;57135;51.992;4.476;2023-07-08T03:26:49;6.97;;;6.97;;
69837;SDS011;57135;51.992;4.476;2023-07-08T03:29:19;6.74;;;6.74;;
69837;SDS011;57135;51.992;4.476;2023-07-08T03:31:45;7.07;;;7.07;;
69837;SDS011;57135;51.992;4.476;2023-07-08T03:34:11;7.16;;;7.16;;
69837;SDS011;57135;51.992;4.476;2023-07-08T03:36:48;7.11;;;7.11;;
69837;SDS011;57135;51.992;4.476;2023-07-08T03:39:18;7.33;;;7.33;;
69837;SDS011;57135;51.992;4.476;2023-07-08T03:41:46;7.15;;;7.15;;
69837;SDS011;57135;51.992;4.476;2023-07-08T03:44:13;7.24;;;7.24;;
69837;SDS011;57135;51.992;4.476;2023-07-08T03:46:40;7.09;;;7.09;;
69837;SDS011;57135;51.992;4.476;2023-07-08T03:49:08;7.06;;;7.06;;
69837;SDS011;57135;51.992;4.476;2023-07-08T03:51:36;6.90;;;6.90;;
69837;SDS011;57135;51.992;4.476;2023-07-08T03:54:04;7.28;;;7.28;;
69837;SDS011;57135;51.992;4.476;2023-07-08T03:56:30;7.29;;;7.29;;
69837;SDS011;57135;51.992;4.476;2023-07-08T03:58:56;7.12;;;7.12;;
69837;SDS011;57135;51.992;4.476;2023-07-08T04:01:22;6.92;;;6.92;;
69837;SDS011;57135;51.992;4.476;2023-07-08T04:03:52;7.54;;;7.54;;
69837;SDS011;57135;51.992;4.476;2023-07-08T04:06:19;7.29;;;7.29;;
69837;SDS011;57135;51.992;4.476;2023-07-08T04:08:45;7.35;;;7.35;;
69837;SDS011;57135;51.992;4.476;2023-07-08T04:11:15;7.34;;;7.34;;
69837;SDS011;57135;51.992;4.476;2023-07-08T04:13:42;7.48;;;7.48;;
69837;SDS011;57135;51.992;4.476;2023-07-08T04:16:09;7.17;;;7.17;;
69837;SDS011;57135;51.992;4.476;2023-07-08T04:18:41;7.17;;;7.17;;
69837;SDS011;57135;51.992;4.476;2023-07-08T04:21:07;7.45;;;7.45;;
69837;SDS011;57135;51.992;4.476;2023-07-08T04:23:32;7.68;;;7.68;;
69837;SDS011;57135;51.992;4.476;2023-07-08T04:25:58;7.66;;;7.66;;
69837;SDS011;57135;51.992;4.476;2023-07-08T04:28:24;7.69;;;7.69;;
69837;SDS011;57135;51.992;4.476;2023-07-08T04:30:51;7.57;;;7.57;;
69837;SDS011;57135;51.992;4.476;2023-07-08T04:33:16;7.29;;;7.29;;
69837;SDS011;57135;51.992;4.476;2023-07-08T04:35:42;7.50;;;7.50;;
69837;SDS011;57135;51.992;4.476;2023-07-08T04:38:16;7.58;;;7.58;;
69837;SDS011;57135;51.992;4.476;2023-07-08T04:40:48;7.65;;;7.65;;
69837;SDS011;57135;51.992;4.476;2023-07-08T04:43:14;7.69;;;7.69;;
69837;SDS011;57135;51.992;4.476;2023-07-08T04:45:41;7.89;;;7.89;;
69837;SDS011;57135;51.992;4.476;2023-07-08T04:48:16;8.67;;;8.67;;
69837;SDS011;57135;51.992;4.476;2023-07-08T04:50:48;8.43;;;8.43;;
69837;SDS011;57135;51.992;4.476;2023-07-08T04:53:16;8.69;;;8.69;;
69837;SDS011;57135;51.992;4.476;2023-07-08T04:55:43;9.60;;;9.60;;
69837;SDS011;57135;51.992;4.476;2023-07-08T04:58:12;8.62;;;8.62;;
69837;SDS011;57135;51.992;4.476;2023-07-08T05:00:37;8.24;;;8.24;;
69837;SDS011;57135;51.992;4.476;2023-07-08T05:03:03;8.37;;;8.37;;
69837;SDS011;57135;51.992;4.476;2023-07-08T05:05:28;8.12;;;8.12;;
69837;SDS011;57135;51.992;4.476;2023-07-08T05:07:54;8.55;;;8.55;;
69837;SDS011;57135;51.992;4.476;2023-07-08T05:10:19;8.49;;;8.49;;
69837;SDS011;57135;51.992;4.476;2023-07-08T05:12:45;9.31;;;9.31;;
69837;SDS011;57135;51.992;4.476;2023-07-08T05:15:12;8.85;;;8.85;;
69837;SDS011;57135;51.992;4.476;2023-07-08T05:17:39;8.88;;;8.88;;
69837;SDS011;57135;51.992;4.476;2023-07-08T05:20:06;9.21;;;9.21;;
69837;SDS011;57135;51.992;4.476;2023-07-08T05:22:33;8.97;;;8.97;;
69837;SDS011;57135;51.992;4.476;2023-07-08T05:24:59;8.01;;;8.01;;
69837;SDS011;57135;51.992;4.476;2023-07-08T05:27:25;8.31;;;8.31;;
69837;SDS011;57135;51.992;4.476;2023-07-08T05:29:51;7.96;;;7.96;;
69837;SDS011;57135;51.992;4.476;2023-07-08T05:32:17;7.77;;;7.77;;
69837;SDS011;57135;51.992;4.476;2023-07-08T05:34:43;7.66;;;7.66;;
69837;SDS011;57135;51.992;4.476;2023-07-08T05:37:09;7.23;;;7.23;;
69837;SDS011;57135;51.992;4.476;2023-07-08T05:39:35;7.39;;;7.39;;
69837;SDS011;57135;51.992;4.476;2023-07-08T05:42:01;7.20;;;7.20;;
69837;SDS011;57135;51.992;4.476;2023-07-08T05:44:27;7.34;;;7.34;;
69837;SDS011;57135;51.992;4.476;2023-07-08T05:46:52;6.95;;;6.95;;
69837;SDS011;57135;51.992;4.476;2023-07-08T05:49:18;6.99;;;6.99;;
69837;SDS011;57135;51.992;4.476;2023-07-08T05:51:43;7.05;;;7.05;;
69837;SDS011;57135;51.992;4.476;2023-07-08T05:54:09;6.97;;;6.97;;
69837;SDS011;57135;51.992;4.476;2023-07-08T05:56:35;7.09;;;7.09;;
69837;SDS011;57135;51.992;4.476;2023-07-08T05:59:01;7.10;;;7.10;;
69837;SDS011;57135;51.992;4.476;2023-07-08T06:01:27;7.22;;;7.22;;
69837;SDS011;57135;51.992;4.476;2023-07-08T06:03:52;6.94;;;6.94;;
69837;SDS011;57135;51.992;4.476;2023-07-08T06:06:18;7.13;;;7.13;;
69837;SDS011;57135;51.992;4.476;2023-07-08T06:08:43;6.67;;;6.67;;
69837;SDS011;57135;51.992;4.476;2023-07-08T06:11:09;6.96;;;6.96;;
69837;SDS011;57135;51.992;4.476;2023-07-08T06:13:34;7.14;;;7.14;;
69837;SDS011;57135;51.992;4.476;2023-07-08T06:16:00;6.85;;;6.85;;
69837;SDS011;57135;51.992;4.476;2023-07-08T06:18:25;6.49;;;6.49;;
69837;SDS011;57135;51.992;4.476;2023-07-08T06:20:52;6.90;;;6.90;;
69837;SDS011;57135;51.992;4.476;2023-07-08T06:23:18;7.07;;;7.07;;
69837;SDS011;57135;51.992;4.476;2023-07-08T06:25:44;7.03;;;7.03;;
69837;SDS011;57135;51.992;4.476;2023-07-08T06:28:09;6.88;;;6.88;;
69837;SDS011;57135;51.992;4.476;2023-07-08T06:30:35;6.88;;;6.88;;
69837;SDS011;57135;51.992;4.476;2023-07-08T06:33:01;6.97;;;6.97;;
69837;SDS011;57135;51.992;4.476;2023-07-08T06:35:27;6.80;;;6.80;;
69837;SDS011;57135;51.992;4.476;2023-07-08T06:37:52;7.04;;;7.04;;
69837;SDS011;57135;51.992;4.476;2023-07-08T06:40:17;7.18;;;7.18;;
69837;SDS011;57135;51.992;4.476;2023-07-08T06:42:44;6.64;;;6.64;;
69837;SDS011;57135;51.992;4.476;2023-07-08T06:45:10;6.35;;;6.35;;
69837;SDS011;57135;51.992;4.476;2023-07-08T06:47:36;6.88;;;6.88;;
69837;SDS011;57135;51.992;4.476;2023-07-08T06:50:02;6.83;;;6.83;;
69837;SDS011;57135;51.992;4.476;2023-07-08T06:52:27;7.13;;;7.13;;
69837;SDS011;57135;51.992;4.476;2023-07-08T06:54:59;6.82;;;6.82;;
69837;SDS011;57135;51.992;4.476;2023-07-08T06:57:29;6.64;;;6.64;;
69837;SDS011;57135;51.992;4.476;2023-07-08T06:59:55;6.92;;;6.92;;
69837;SDS011;57135;51.992;4.476;2023-07-08T07:02:20;6.76;;;6.76;;
69837;SDS011;57135;51.992;4.476;2023-07-08T07:04:46;6.93;;;6.93;;
69837;SDS011;57135;51.992;4.476;2023-07-08T07:07:11;6.92;;;6.92;;
69837;SDS011;57135;51.992;4.476;2023-07-08T07:09:37;6.94;;;6.94;;
69837;SDS011;57135;51.992;4.476;2023-07-08T07:12:04;7.09;;;7.09;;
69837;SDS011;57135;51.992;4.476;2023-07-08T07:14:30;7.23;;;7.23;;
69837;SDS011;57135;51.992;4.476;2023-07-08T07:16:56;6.68;;;6.68;;
69837;SDS011;57135;51.992;4.476;2023-07-08T07:19:21;6.72;;;6.72;;
69837;SDS011;57135;51.992;4.476;2023-07-08T07:21:47;6.87;;;6.87;;
69837;SDS011;57135;51.992;4.476;2023-07-08T07:24:12;6.67;;;6.67;;
69837;SDS011;57135;51.992;4.476;2023-07-08T07:26:38;7.06;;;7.06;;
69837;SDS011;57135;51.992;4.476;2023-07-08T07:29:04;7.16;;;7.16;;
69837;SDS011;57135;51.992;4.476;2023-07-08T07:31:29;7.29;;;7.29;;
69837;SDS011;57135;51.992;4.476;2023-07-08T07:33:56;7.35;;;7.35;;
69837;SDS011;57135;51.992;4.476;2023-07-08T07:36:22;7.27;;;7.27;;
69837;SDS011;57135;51.992;4.476;2023-07-08T07:38:47;7.23;;;7.23;;
69837;SDS011;57135;51.992;4.476;2023-07-08T07:41:13;7.48;;;7.48;;
69837;SDS011;57135;51.992;4.476;2023-07-08T07:43:38;7.30;;;7.30;;
69837;SDS011;57135;51.992;4.476;2023-07-08T07:46:04;7.08;;;7.08;;
69837;SDS011;57135;51.992;4.476;2023-07-08T07:48:30;6.85;;;6.84;;
69837;SDS011;57135;51.992;4.476;2023-07-08T07:50:57;6.98;;;6.98;;
69837;SDS011;57135;51.992;4.476;2023-07-08T07:53:22;6.79;;;6.79;;
69837;SDS011;57135;51.992;4.476;2023-07-08T07:55:48;7.80;;;7.79;;
69837;SDS011;57135;51.992;4.476;2023-07-08T07:58:20;7.37;;;7.36;;
69837;SDS011;57135;51.992;4.476;2023-07-08T08:00:45;7.43;;;7.43;;
69837;SDS011;57135;51.992;4.476;2023-07-08T08:03:11;6.93;;;6.93;;
69837;SDS011;57135;51.992;4.476;2023-07-08T08:05:37;7.02;;;7.02;;
69837;SDS011;57135;51.992;4.476;2023-07-08T08:08:02;7.11;;;7.06;;
69837;SDS011;57135;51.992;4.476;2023-07-08T08:10:29;7.00;;;6.99;;
69837;SDS011;57135;51.992;4.476;2023-07-08T08:12:56;7.37;;;7.37;;
69837;SDS011;57135;51.992;4.476;2023-07-08T08:15:21;7.39;;;7.38;;
69837;SDS011;57135;51.992;4.476;2023-07-08T08:17:47;7.09;;;7.09;;
69837;SDS011;57135;51.992;4.476;2023-07-08T08:20:14;7.29;;;7.28;;
69837;SDS011;57135;51.992;4.476;2023-07-08T08:22:40;7.41;;;7.41;;
69837;SDS011;57135;51.992;4.476;2023-07-08T08:25:05;7.04;;;7.04;;
69837;SDS011;57135;51.992;4.476;2023-07-08T08:27:31;7.13;;;7.13;;
69837;SDS011;57135;51.992;4.476;2023-07-08T08:29:57;7.19;;;7.19;;
69837;SDS011;57135;51.992;4.476;2023-07-08T08:32:22;7.31;;;7.31;;
69837;SDS011;57135;51.992;4.476;2023-07-08T08:34:48;7.21;;;7.21;;
69837;SDS011;57135;51.992;4.476;2023-07-08T08:37:13;7.23;;;7.23;;
69837;SDS011;57135;51.992;4.476;2023-07-08T08:39:39;7.34;;;7.34;;
69837;SDS011;57135;51.992;4.476;2023-07-08T08:42:07;7.48;;;7.48;;
69837;SDS011;57135;51.992;4.476;2023-07-08T08:44:47;7.22;;;7.22;;
69837;SDS011;57135;51.992;4.476;2023-07-08T08:49:54;7.28;;;7.28;;
69837;SDS011;57135;51.992;4.476;2023-07-08T08:52:44;7.33;;;7.33;;
69837;SDS011;57135;51.992;4.476;2023-07-08T08:55:13;7.82;;;7.78;;
69837;SDS011;57135;51.992;4.476;2023-07-08T09:00:11;8.06;;;8.06;;
69837;SDS011;57135;51.992;4.476;2023-07-08T09:02:57;7.61;;;7.61;;
69837;SDS011;57135;51.992;4.476;2023-07-08T09:05:28;7.53;;;7.53;;
69837;SDS011;57135;51.992;4.476;2023-07-08T09:13:32;7.93;;;7.93;;
69837;SDS011;57135;51.992;4.476;2023-07-08T09:16:05;7.41;;;7.41;;
69837;SDS011;57135;51.992;4.476;2023-07-08T09:21:42;7.96;;;7.94;;
69837;SDS011;57135;51.992;4.476;2023-07-08T09:24:16;7.66;;;7.66;;
69837;SDS011;57135;51.992;4.476;2023-07-08T09:26:48;8.02;;;8.01;;
69837;SDS011;57135;51.992;4.476;2023-07-08T09:29:17;7.46;;;7.45;;
69837;SDS011;57135;51.992;4.476;2023-07-08T09:31:43;8.11;;;8.11;;
69837;SDS011;57135;51.992;4.476;2023-07-08T09:34:10;7.08;;;7.08;;
69837;SDS011;57135;51.992;4.476;2023-07-08T09:36:43;7.99;;;7.99;;
69837;SDS011;57135;51.992;4.476;2023-07-08T09:39:15;8.39;;;8.38;;
69837;SDS011;57135;51.992;4.476;2023-07-08T09:41:43;8.29;;;8.28;;
69837;SDS011;57135;51.992;4.476;2023-07-08T09:44:15;8.41;;;8.41;;
69837;SDS011;57135;51.992;4.476;2023-07-08T09:46:43;8.49;;;8.48;;
69837;SDS011;57135;51.992;4.476;2023-07-08T09:49:20;8.01;;;8.01;;
69837;SDS011;57135;51.992;4.476;2023-07-08T09:51:48;7.88;;;7.87;;
69837;SDS011;57135;51.992;4.476;2023-07-08T09:54:17;8.45;;;8.44;;
69837;SDS011;57135;51.992;4.476;2023-07-08T09:56:48;8.29;;;8.27;;
69837;SDS011;57135;51.992;4.476;2023-07-08T10:00:07;8.11;;;8.09;;
69837;SDS011;57135;51.992;4.476;2023-07-08T10:02:46;8.59;;;8.57;;
69837;SDS011;57135;51.992;4.476;2023-07-08T10:05:24;8.19;;;8.19;;
69837;SDS011;57135;51.992;4.476;2023-07-08T10:07:57;8.50;;;8.50;;
69837;SDS011;57135;51.992;4.476;2023-07-08T10:10:31;8.44;;;8.44;;
69837;SDS011;57135;51.992;4.476;2023-07-08T10:13:04;8.56;;;8.56;;
69837;SDS011;57135;51.992;4.476;2023-07-08T10:16:00;;;;8.03;;
69837;SDS011;57135;51.992;4.476;2023-07-08T10:18:46;8.54;;;8.51;;
69837;SDS011;57135;51.992;4.476;2023-07-08T10:21:13;8.92;;;8.88;;
69837;SDS011;57135;51.992;4.476;2023-07-08T10:26:36;9.06;;;9.01;;
69837;SDS011;57135;51.992;4.476;2023-07-08T10:32:06;9.29;;;9.29;;
69837;SDS011;57135;51.992;4.476;2023-07-08T10:35:09;9.53;;;9.51;;
69837;SDS011;57135;51.992;4.476;2023-07-08T10:43:42;9.36;;;9.30;;
69837;SDS011;57135;51.992;4.476;2023-07-08T10:49:08;9.01;;;8.98;;
69837;SDS011;57135;51.992;4.476;2023-07-08T10:51:47;9.04;;;9.04;;
69837;SDS011;57135;51.992;4.476;2023-07-08T11:00:49;8.84;;;8.82;;
69837;SDS011;57135;51.992;4.476;2023-07-08T11:06:02;9.16;;;9.11;;
69837;SDS011;57135;51.992;4.476;2023-07-08T11:08:57;9.06;;;9.05;;
69837;SDS011;57135;51.992;4.476;2023-07-08T11:11:37;9.10;;;9.06;;
69837;SDS011;57135;51.992;4.476;2023-07-08T11:14:46;9.20;;;9.20;;
69837;SDS011;57135;51.992;4.476;2023-07-08T11:17:43;9.14;;;9.13;;
69837;SDS011;57135;51.992;4.476;2023-07-08T11:23:04;9.32;;;9.30;;
69837;SDS011;57135;51.992;4.476;2023-07-08T11:25:48;9.33;;;9.32;;
69837;SDS011;57135;51.992;4.476;2023-07-08T11:28:18;9.24;;;9.18;;
69837;SDS011;57135;51.992;4.476;2023-07-08T11:30:48;9.74;;;9.63;;
69837;SDS011;57135;51.992;4.476;2023-07-08T11:33:17;9.96;;;9.79;;
69837;SDS011;57135;51.992;4.476;2023-07-08T11:35:48;9.69;;;9.66;;
69837;SDS011;57135;51.992;4.476;2023-07-08T11:38:19;10.26;;;10.19;;
69837;SDS011;57135;51.992;4.476;2023-07-08T11:40:56;9.16;;;9.15;;
69837;SDS011;57135;51.992;4.476;2023-07-08T11:43:23;9.54;;;9.48;;
69837;SDS011;57135;51.992;4.476;2023-07-08T11:45:54;9.43;;;9.30;;
69837;SDS011;57135;51.992;4.476;2023-07-08T11:48:26;9.57;;;9.36;;
69837;SDS011;57135;51.992;4.476;2023-07-08T11:50:56;9.52;;;9.45;;
69837;SDS011;57135;51.992;4.476;2023-07-08T11:55:58;9.58;;;9.42;;
69837;SDS011;57135;51.992;4.476;2023-07-08T11:58:27;9.41;;;9.41;;
69837;SDS011;57135;51.992;4.476;2023-07-08T12:03:55;9.31;;;9.29;;
69837;SDS011;57135;51.992;4.476;2023-07-08T12:08:55;9.77;;;9.64;;
69837;SDS011;57135;51.992;4.476;2023-07-08T12:11:25;9.78;;;9.65;;
69837;SDS011;57135;51.992;4.476;2023-07-08T12:13:57;9.77;;;9.77;;
69837;SDS011;57135;51.992;4.476;2023-07-08T12:16:25;9.37;;;9.37;;
69837;SDS011;57135;51.992;4.476;2023-07-08T12:18:51;8.92;;;8.90;;
69837;SDS011;57135;51.992;4.476;2023-07-08T12:21:18;9.38;;;9.24;;
69837;SDS011;57135;51.992;4.476;2023-07-08T12:23:47;8.87;;;8.80;;
69837;SDS011;57135;51.992;4.476;2023-07-08T12:26:13;9.43;;;9.41;;
69837;SDS011;57135;51.992;4.476;2023-07-08T12:28:39;10.06;;;9.96;;
69837;SDS011;57135;51.992;4.476;2023-07-08T12:31:24;9.65;;;9.54;;
69837;SDS011;57135;51.992;4.476;2023-07-08T12:33:50;9.21;;;9.12;;
69837;SDS011;57135;51.992;4.476;2023-07-08T12:36:20;8.96;;;8.88;;
69837;SDS011;57135;51.992;4.476;2023-07-08T12:38:47;8.56;;;8.56;;
69837;SDS011;57135;51.992;4.476;2023-07-08T12:43:50;9.19;;;9.16;;
69837;SDS011;57135;51.992;4.476;2023-07-08T12:46:18;9.02;;;9.01;;
69837;SDS011;57135;51.992;4.476;2023-07-08T12:48:44;8.99;;;8.96;;
69837;SDS011;57135;51.992;4.476;2023-07-08T12:51:13;8.75;;;8.60;;
69837;SDS011;57135;51.992;4.476;2023-07-08T12:53:45;8.84;;;8.78;;
69837;SDS011;57135;51.992;4.476;2023-07-08T12:56:11;8.91;;;8.91;;
69837;SDS011;57135;51.992;4.476;2023-07-08T12:58:38;8.49;;;8.49;;
69837;SDS011;57135;51.992;4.476;2023-07-08T13:01:07;8.57;;;8.56;;
69837;SDS011;57135;51.992;4.476;2023-07-08T13:03:34;8.52;;;8.43;;
69837;SDS011;57135;51.992;4.476;2023-07-08T13:06:04;8.31;;;8.27;;
69837;SDS011;57135;51.992;4.476;2023-07-08T13:08:31;8.64;;;8.61;;
69837;SDS011;57135;51.992;4.476;2023-07-08T13:11:02;8.18;;;8.11;;
69837;SDS011;57135;51.992;4.476;2023-07-08T13:13:33;8.25;;;8.22;;
69837;SDS011;57135;51.992;4.476;2023-07-08T13:16:02;8.34;;;8.33;;
69837;SDS011;57135;51.992;4.476;2023-07-08T13:18:30;8.01;;;7.96;;
69837;SDS011;57135;51.992;4.476;2023-07-08T13:20:58;8.15;;;8.15;;
69837;SDS011;57135;51.992;4.476;2023-07-08T13:23:25;8.21;;;8.18;;
69837;SDS011;57135;51.992;4.476;2023-07-08T13:25:53;8.21;;;8.18;;
69837;SDS011;57135;51.992;4.476;2023-07-08T13:30:52;8.18;;;8.18;;
69837;SDS011;57135;51.992;4.476;2023-07-08T13:33:22;8.41;;;8.38;;
69837;SDS011;57135;51.992;4.476;2023-07-08T13:35:48;8.13;;;8.07;;
69837;SDS011;57135;51.992;4.476;2023-07-08T13:38:17;7.57;;;7.56;;
69837;SDS011;57135;51.992;4.476;2023-07-08T13:40:47;8.01;;;8.01;;
69837;SDS011;57135;51.992;4.476;2023-07-08T13:43:22;8.19;;;8.08;;
69837;SDS011;57135;51.992;4.476;2023-07-08T13:45:50;7.91;;;7.85;;
69837;SDS011;57135;51.992;4.476;2023-07-08T13:48:21;7.95;;;7.95;;
69837;SDS011;57135;51.992;4.476;2023-07-08T13:53:32;7.92;;;7.89;;
69837;SDS011;57135;51.992;4.476;2023-07-08T13:58:44;8.05;;;7.96;;
69837;SDS011;57135;51.992;4.476;2023-07-08T14:01:23;8.20;;;8.19;;
69837;SDS011;57135;51.992;4.476;2023-07-08T14:03:51;8.26;;;8.26;;
69837;SDS011;57135;51.992;4.476;2023-07-08T14:06:24;8.51;;;8.47;;
69837;SDS011;57135;51.992;4.476;2023-07-08T14:08:53;7.97;;;7.90;;
69837;SDS011;57135;51.992;4.476;2023-07-08T14:11:21;8.03;;;7.97;;
69837;SDS011;57135;51.992;4.476;2023-07-08T14:13:47;8.64;;;8.60;;
69837;SDS011;57135;51.992;4.476;2023-07-08T14:16:27;8.54;;;8.52;;
69837;SDS011;57135;51.992;4.476;2023-07-08T14:18:56;8.77;;;8.76;;
69837;SDS011;57135;51.992;4.476;2023-07-08T14:21:23;9.91;;;9.82;;
69837;SDS011;57135;51.992;4.476;2023-07-08T14:23:49;9.87;;;9.85;;
69837;SDS011;57135;51.992;4.476;2023-07-08T14:26:15;9.08;;;9.06;;
69837;SDS011;57135;51.992;4.476;2023-07-08T14:28:40;8.46;;;8.39;;
69837;SDS011;57135;51.992;4.476;2023-07-08T14:31:09;9.17;;;9.10;;
69837;SDS011;57135;51.992;4.476;2023-07-08T14:33:37;9.46;;;9.34;;
69837;SDS011;57135;51.992;4.476;2023-07-08T14:36:10;9.44;;;9.36;;
69837;SDS011;57135;51.992;4.476;2023-07-08T14:38:36;9.43;;;9.38;;
69837;SDS011;57135;51.992;4.476;2023-07-08T14:41:01;9.46;;;9.38;;
69837;SDS011;57135;51.992;4.476;2023-07-08T14:43:28;8.91;;;8.85;;
69837;SDS011;57135;51.992;4.476;2023-07-08T14:45:55;9.52;;;9.46;;
69837;SDS011;57135;51.992;4.476;2023-07-08T14:48:23;9.35;;;9.34;;
69837;SDS011;57135;51.992;4.476;2023-07-08T14:50:49;10.07;;;9.93;;
69837;SDS011;57135;51.992;4.476;2023-07-08T14:53:16;9.52;;;9.50;;
69837;SDS011;57135;51.992;4.476;2023-07-08T14:55:43;9.19;;;9.16;;
69837;SDS011;57135;51.992;4.476;2023-07-08T14:58:17;9.33;;;9.30;;
69837;SDS011;57135;51.992;4.476;2023-07-08T15:00:48;10.26;;;10.12;;
69837;SDS011;57135;51.992;4.476;2023-07-08T15:03:14;9.80;;;9.76;;
69837;SDS011;57135;51.992;4.476;2023-07-08T15:05:41;9.39;;;9.35;;
69837;SDS011;57135;51.992;4.476;2023-07-08T15:08:07;9.68;;;9.64;;
69837;SDS011;57135;51.992;4.476;2023-07-08T15:10:33;11.67;;;11.44;;
69837;SDS011;57135;51.992;4.476;2023-07-08T15:13:00;11.71;;;11.47;;
69837;SDS011;57135;51.992;4.476;2023-07-08T15:15:30;11.40;;;11.35;;
69837;SDS011;57135;51.992;4.476;2023-07-08T15:17:58;13.72;;;13.48;;
69837;SDS011;57135;51.992;4.476;2023-07-08T15:20:24;11.98;;;11.94;;
69837;SDS011;57135;51.992;4.476;2023-07-08T15:22:50;10.64;;;10.58;;
69837;SDS011;57135;51.992;4.476;2023-07-08T15:25:16;10.55;;;10.52;;
69837;SDS011;57135;51.992;4.476;2023-07-08T15:27:48;10.30;;;10.29;;
69837;SDS011;57135;51.992;4.476;2023-07-08T15:30:18;10.27;;;10.11;;
69837;SDS011;57135;51.992;4.476;2023-07-08T15:32:45;9.85;;;9.85;;
69837;SDS011;57135;51.992;4.476;2023-07-08T15:35:12;10.48;;;10.43;;
69837;SDS011;57135;51.992;4.476;2023-07-08T15:37:51;10.01;;;9.93;;
69837;SDS011;57135;51.992;4.476;2023-07-08T15:40:18;10.58;;;10.41;;
69837;SDS011;57135;51.992;4.476;2023-07-08T15:42:45;11.32;;;11.15;;
69837;SDS011;57135;51.992;4.476;2023-07-08T15:45:29;14.21;;;13.99;;
69837;SDS011;57135;51.992;4.476;2023-07-08T15:47:57;11.42;;;11.20;;
69837;SDS011;57135;51.992;4.476;2023-07-08T15:50:24;12.17;;;11.98;;
69837;SDS011;57135;51.992;4.476;2023-07-08T15:52:51;10.92;;;10.73;;
69837;SDS011;57135;51.992;4.476;2023-07-08T15:55:20;11.18;;;11.05;;
69837;SDS011;57135;51.992;4.476;2023-07-08T15:57:52;11.22;;;11.07;;
69837;SDS011;57135;51.992;4.476;2023-07-08T16:00:23;10.50;;;10.39;;
69837;SDS011;57135;51.992;4.476;2023-07-08T16:02:52;10.29;;;10.13;;